Time;durP1;ratioP1;P1;durP2;ratioP2;P2;SDS_P1;SDS_P2;PMS_P1;PMS_P2;Temp;Humidity;BMP_temperature;BMP_pressure;BME280_temperature;BME280_humidity;BME280_pressure;Samples;Min_cycle;Max_cycle;Signal;HPM_P1;HPM_P2
2024/01/21 00:00:59;;;;;;;22.30;20.77;;;;;;;0.60;100.00;102221.19;4936712;29;20440;-34
2024/01/21 00:03:27;;;;;;;21.50;20.10;;;;;;;0.61;100.00;102208.91;4934721;29;20467;-34
2024/01/21 00:05:54;;;;;;;22.57;20.93;;;;;;;0.58;100.00;102217.81;4936541;28;20440;-35
2024/01/21 00:08:24;;;;;;;20.67;19.37;;;;;;;0.59;100.00;102211.63;4937072;29;20876;-34
2024/01/21 00:10:52;;;;;;;22.00;20.60;;;;;;;0.57;100.00;102202.19;4937069;29;20436;-36
2024/01/21 00:13:20;;;;;;;21.10;19.73;;;;;;;0.58;100.00;102202.06;4936279;29;20512;-36
2024/01/21 00:15:48;;;;;;;21.43;19.93;;;;;;;0.55;100.00;102200.47;4934961;28;20539;-35
2024/01/21 00:18:16;;;;;;;22.70;21.00;;;;;;;0.55;100.00;102200.47;4936461;29;21047;-35
2024/01/21 00:20:44;;;;;;;24.13;22.50;;;;;;;0.54;100.00;102200.56;4937099;29;20472;-35
2024/01/21 00:23:13;;;;;;;23.60;21.93;;;;;;;0.53;100.00;102199.75;4934828;29;20456;-37
2024/01/21 00:25:42;;;;;;;24.13;22.27;;;;;;;0.49;100.00;102193.00;4936471;29;20447;-36
2024/01/21 00:28:10;;;;;;;24.60;22.97;;;;;;;0.47;100.00;102194.88;4936147;29;20886;-35
2024/01/21 00:30:37;;;;;;;23.27;21.67;;;;;;;0.46;100.00;102181.84;4937269;29;20460;-36
2024/01/21 00:33:05;;;;;;;22.93;21.33;;;;;;;0.41;100.00;102174.28;4936328;29;20465;-34
2024/01/21 00:35:33;;;;;;;24.60;22.83;;;;;;;0.42;100.00;102180.34;4935721;29;20441;-37
2024/01/21 00:38:02;;;;;;;23.77;22.17;;;;;;;0.37;100.00;102177.16;4936019;28;20544;-35
2024/01/21 00:40:30;;;;;;;22.90;21.40;;;;;;;0.35;100.00;102179.06;4935260;29;20448;-35
2024/01/21 00:42:59;;;;;;;22.33;20.87;;;;;;;0.31;100.00;102173.16;4935469;29;20472;-33
2024/01/21 00:45:27;;;;;;;22.60;21.10;;;;;;;0.28;100.00;102167.25;4936115;29;20439;-34
2024/01/21 00:47:56;;;;;;;24.00;22.30;;;;;;;0.25;100.00;102167.44;4934987;28;21014;-34
2024/01/21 00:50:23;;;;;;;23.17;21.77;;;;;;;0.20;100.00;102159.03;4928048;29;20501;-34
2024/01/21 00:52:51;;;;;;;22.33;20.63;;;;;;;0.17;100.00;102156.59;4936809;29;20468;-35
2024/01/21 00:55:19;;;;;;;22.50;21.20;;;;;;;0.16;100.00;102154.91;4935669;29;20480;-36
2024/01/21 00:57:47;;;;;;;22.70;21.03;;;;;;;0.12;100.00;102159.47;4935081;28;20516;-34
2024/01/21 01:00:17;;;;;;;22.47;21.17;;;;;;;0.13;100.00;102153.31;4934993;29;20449;-36
2024/01/21 01:02:45;;;;;;;22.40;21.17;;;;;;;0.09;100.00;102149.19;4934383;29;20473;-35
2024/01/21 01:05:12;;;;;;;21.63;20.23;;;;;;;0.09;100.00;102151.00;4934939;29;20461;-35
2024/01/21 01:07:40;;;;;;;23.00;21.47;;;;;;;0.07;100.00;102158.09;4936208;28;20464;-34
2024/01/21 01:10:09;;;;;;;22.17;20.77;;;;;;;-0.01;100.00;102155.94;4935667;29;20449;-34
2024/01/21 01:12:36;;;;;;;23.20;21.60;;;;;;;-0.02;100.00;102162.97;4935669;29;20448;-34
2024/01/21 01:15:05;;;;;;;22.53;21.13;;;;;;;-0.06;100.00;102158.84;4934647;29;20481;-33
2024/01/21 01:17:34;;;;;;;22.60;21.03;;;;;;;-0.09;100.00;102155.59;4933327;28;20465;-36
2024/01/21 01:20:02;;;;;;;21.87;20.47;;;;;;;-0.11;100.00;102158.28;4934617;29;20437;-34
2024/01/21 01:22:30;;;;;;;21.87;20.20;;;;;;;-0.14;100.00;102155.00;4935202;29;20915;-35
2024/01/21 01:24:57;;;;;;;22.97;21.57;;;;;;;-0.15;100.00;102148.09;4934368;29;20443;-33
2024/01/21 01:27:26;;;;;;;22.40;21.10;;;;;;;-0.18;100.00;102150.91;4933349;28;20564;-34
2024/01/21 01:29:54;;;;;;;22.30;20.77;;;;;;;-0.23;100.00;102148.53;4935081;29;20445;-36
2024/01/21 01:32:22;;;;;;;20.80;19.57;;;;;;;-0.26;100.00;102147.88;4933949;29;20440;-34
2024/01/21 01:34:54;;;;;;;20.63;19.43;;;;;;;-0.28;100.00;102131.41;4934158;29;20563;-40
2024/01/21 01:37:22;;;;;;;22.60;21.00;;;;;;;-0.31;100.00;102136.84;4934699;28;20474;-34
2024/01/21 01:39:50;;;;;;;21.40;20.00;;;;;;;-0.31;100.00;102139.47;4934841;29;21132;-35
2024/01/21 01:42:18;;;;;;;22.00;20.40;;;;;;;-0.29;100.00;102132.34;4926073;29;20444;-35
2024/01/21 01:44:46;;;;;;;20.30;19.07;;;;;;;-0.28;100.00;102136.66;4935381;29;20436;-33
2024/01/21 01:47:14;;;;;;;21.27;19.67;;;;;;;-0.26;100.00;102126.91;4933411;28;20572;-34
2024/01/21 01:49:42;;;;;;;20.60;19.50;;;;;;;-0.24;100.00;102131.13;4926337;29;20524;-36
2024/01/21 01:52:15;;;;;;;21.37;19.77;;;;;;;-0.18;100.00;102132.56;4934840;29;20481;-34
2024/01/21 01:54:46;;;;;;;20.73;19.53;;;;;;;-0.15;100.00;102135.81;4936367;29;20987;-34
2024/01/21 01:57:15;;;;;;;21.20;19.87;;;;;;;-0.09;100.00;102137.22;4935784;28;20469;-34
2024/01/21 01:59:43;;;;;;;20.53;19.27;;;;;;;-0.06;100.00;102135.25;4927743;29;20444;-33
2024/01/21 02:02:11;;;;;;;20.70;19.47;;;;;;;-0.04;100.00;102133.38;4935522;29;20440;-35
2024/01/21 02:04:39;;;;;;;20.53;19.23;;;;;;;0.02;100.00;102126.91;4935089;29;20471;-34
2024/01/21 02:07:07;;;;;;;20.73;19.53;;;;;;;0.06;100.00;102132.81;4934196;28;21008;-34
2024/01/21 02:09:36;;;;;;;20.10;19.00;;;;;;;0.08;100.00;102118.66;4935254;29;20503;-34
2024/01/21 02:12:05;;;;;;;21.23;19.93;;;;;;;0.11;100.00;102115.00;4934548;29;20444;-34
2024/01/21 02:14:32;;;;;;;20.37;18.83;;;;;;;0.09;100.00;102119.50;4926049;29;20481;-34
2024/01/21 02:17:00;;;;;;;19.83;18.63;;;;;;;0.11;100.00;102115.84;4933759;28;20457;-34
2024/01/21 02:19:30;;;;;;;19.30;18.20;;;;;;;0.12;100.00;102121.94;4934501;29;20445;-34
2024/01/21 02:21:58;;;;;;;19.30;18.30;;;;;;;0.11;100.00;102115.84;4933722;29;20451;-34
2024/01/21 02:24:31;;;;;;;19.80;18.70;;;;;;;0.12;100.00;102114.06;4933859;29;20551;-36
2024/01/21 02:26:59;;;;;;;20.17;19.10;;;;;;;0.13;100.00;102110.50;4933332;28;20583;-34
2024/01/21 02:29:28;;;;;;;19.60;18.50;;;;;;;0.09;100.00;102112.47;4933202;29;20809;-36
2024/01/21 02:31:57;;;;;;;20.20;19.00;;;;;;;0.10;100.00;102100.19;4934695;29;20801;-33
2024/01/21 02:34:25;;;;;;;19.10;18.10;;;;;;;0.08;100.00;102097.69;4926288;29;20484;-34
2024/01/21 02:36:53;;;;;;;20.33;19.03;;;;;;;0.04;100.00;102095.34;4933408;28;20464;-34
2024/01/21 02:39:21;;;;;;;19.70;18.60;;;;;;;0.03;100.00;102093.66;4936409;29;20474;-35
2024/01/21 02:41:50;;;;;;;19.60;18.57;;;;;;;0.00;100.00;102092.09;4937604;29;20555;-35
2024/01/21 02:44:18;;;;;;;21.13;19.77;;;;;;;-0.04;100.00;102088.81;4938959;29;20567;-34
2024/01/21 02:46:45;;;;;;;19.50;18.40;;;;;;;-0.06;100.00;102081.97;4937667;28;20555;-34
2024/01/21 02:49:13;;;;;;;19.93;18.83;;;;;;;-0.09;100.00;102079.53;4936980;29;20444;-37
2024/01/21 02:51:41;;;;;;;19.77;18.77;;;;;;;-0.15;100.00;102080.75;4937243;29;20440;-34
2024/01/21 02:54:09;;;;;;;20.93;19.83;;;;;;;-0.18;100.00;102083.56;4937801;29;20463;-35
2024/01/21 02:56:37;;;;;;;19.13;18.10;;;;;;;-0.18;100.00;102086.19;4936977;28;20488;-37
2024/01/21 02:59:06;;;;;;;21.30;20.10;;;;;;;-0.18;100.00;102074.88;4929072;29;20468;-33
2024/01/21 03:01:34;;;;;;;20.40;19.40;;;;;;;-0.17;100.00;102073.91;4927625;29;20440;-37
2024/01/21 03:04:02;;;;;;;20.30;18.80;;;;;;;-0.15;100.00;102070.25;4930129;29;20496;-34
2024/01/21 03:06:30;;;;;;;21.30;20.13;;;;;;;-0.14;100.00;102061.47;4936207;28;20496;-34
2024/01/21 03:08:57;;;;;;;21.20;19.87;;;;;;;-0.13;100.00;102050.03;4937473;29;20864;-34
2024/01/21 03:11:25;;;;;;;19.73;18.63;;;;;;;-0.12;100.00;102053.53;4936558;29;20448;-33
2024/01/21 03:13:53;;;;;;;19.90;18.90;;;;;;;-0.12;100.00;102058.75;4935666;29;20896;-35
2024/01/21 03:16:22;;;;;;;19.57;18.57;;;;;;;-0.12;100.00;102054.34;4936611;28;20583;-34
2024/01/21 03:18:50;;;;;;;20.17;19.17;;;;;;;-0.14;100.00;102050.97;4929259;29;20479;-34
2024/01/21 03:21:17;;;;;;;20.70;19.60;;;;;;;-0.13;100.00;102046.59;4936795;29;20444;-34
2024/01/21 03:23:45;;;;;;;20.00;19.00;;;;;;;-0.14;100.00;102042.25;4937058;29;20876;-34
2024/01/21 03:26:13;;;;;;;20.20;19.00;;;;;;;-0.16;100.00;102046.78;4936082;28;21078;-36
2024/01/21 03:28:41;;;;;;;19.80;18.70;;;;;;;-0.19;100.00;102036.47;4936530;29;20488;-34
2024/01/21 03:31:08;;;;;;;19.37;18.43;;;;;;;-0.19;100.00;102039.09;4936227;29;20532;-37
2024/01/21 03:33:38;;;;;;;20.27;19.27;;;;;;;-0.19;100.00;102041.72;4935823;29;20459;-34
2024/01/21 03:36:06;;;;;;;21.37;20.23;;;;;;;-0.17;100.00;102042.44;4936188;28;20474;-33
2024/01/21 03:38:34;;;;;;;19.23;18.33;;;;;;;-0.13;100.00;102038.72;4936411;29;20441;-35
2024/01/21 03:41:02;;;;;;;20.53;19.50;;;;;;;-0.09;100.00;102037.59;4937907;29;20433;-37
2024/01/21 03:43:30;;;;;;;19.40;18.50;;;;;;;-0.03;100.00;102026.72;4938911;29;20488;-38
2024/01/21 03:45:57;;;;;;;20.10;19.10;;;;;;;0.02;100.00;102023.78;4937348;28;20820;-35
2024/01/21 03:48:25;;;;;;;19.17;18.23;;;;;;;0.08;100.00;102016.38;4937959;28;20436;-35
2024/01/21 03:50:55;;;;;;;19.60;18.70;;;;;;;0.15;100.00;102011.59;4938121;29;20476;-37
2024/01/21 03:53:23;;;;;;;19.27;18.30;;;;;;;0.20;100.00;101999.84;4936836;29;20483;-34
2024/01/21 03:55:51;;;;;;;18.77;17.90;;;;;;;0.28;100.00;101997.56;4935985;28;20472;-38
2024/01/21 03:58:19;;;;;;;18.27;17.37;;;;;;;0.34;100.00;101988.44;4937764;29;20453;-34
2024/01/21 04:00:46;;;;;;;18.27;17.47;;;;;;;0.42;100.00;101992.25;4936526;29;20923;-34
2024/01/21 04:03:14;;;;;;;18.47;17.53;;;;;;;0.48;100.00;101988.38;4936219;29;20469;-34
2024/01/21 04:05:42;;;;;;;18.47;17.57;;;;;;;0.53;100.00;101995.03;4936015;29;20608;-37
2024/01/21 04:08:11;;;;;;;17.83;17.10;;;;;;;0.61;100.00;101985.78;4936090;29;20488;-36
2024/01/21 04:10:40;;;;;;;18.90;18.10;;;;;;;0.65;100.00;101982.84;4935980;29;20447;-33
2024/01/21 04:13:08;;;;;;;18.60;17.70;;;;;;;0.67;100.00;101964.38;4935761;29;20466;-34
2024/01/21 04:15:36;;;;;;;18.07;17.20;;;;;;;0.72;98.15;101957.03;4937062;29;20480;-34
2024/01/21 04:18:05;;;;;;;17.97;17.07;;;;;;;0.75;98.93;101962.06;4935201;28;20460;-35
2024/01/21 04:20:32;;;;;;;17.87;16.80;;;;;;;0.76;97.51;101959.34;4935141;29;20535;-33
2024/01/21 04:23:01;;;;;;;18.00;16.77;;;;;;;0.79;98.63;101951.25;4935406;29;20503;-37
2024/01/21 04:25:30;;;;;;;18.07;17.13;;;;;;;0.81;97.30;101951.97;4933637;29;21005;-36
2024/01/21 04:27:57;;;;;;;15.33;14.73;;;;;;;0.85;100.00;101950.00;4932297;28;21062;-35
2024/01/21 04:30:25;;;;;;;17.30;16.30;;;;;;;0.84;93.95;101938.66;4933011;29;20445;-37
2024/01/21 04:32:54;;;;;;;17.20;16.30;;;;;;;0.88;93.80;101941.91;4932983;29;20456;-37
2024/01/21 04:35:22;;;;;;;17.40;16.50;;;;;;;0.87;94.18;101942.84;4932881;29;20473;-36
2024/01/21 04:37:50;;;;;;;16.83;16.03;;;;;;;0.89;92.81;101941.81;4924227;28;20535;-40
2024/01/21 04:40:18;;;;;;;17.60;16.90;;;;;;;0.91;92.66;101937.28;4934170;29;20548;-36
2024/01/21 04:42:47;;;;;;;16.50;15.50;;;;;;;0.94;91.16;101937.06;4932186;29;20531;-35
2024/01/21 04:45:16;;;;;;;15.40;14.70;;;;;;;0.97;89.73;101928.16;4933280;29;20979;-36
2024/01/21 04:47:44;;;;;;;15.43;14.73;;;;;;;1.02;89.23;101928.66;4931777;28;20457;-36
2024/01/21 04:50:12;;;;;;;15.47;14.87;;;;;;;1.03;87.88;101920.69;4933720;29;20504;-36
2024/01/21 04:52:39;;;;;;;15.13;14.63;;;;;;;1.05;87.79;101916.16;4931535;29;20491;-36
2024/01/21 04:55:09;;;;;;;15.37;14.83;;;;;;;1.08;87.79;101915.09;4931560;29;20504;-36
2024/01/21 04:57:36;;;;;;;15.93;15.27;;;;;;;1.09;87.98;101909.75;4931433;28;21314;-35
2024/01/21 05:00:07;;;;;;;14.67;14.17;;;;;;;1.10;86.38;101908.81;4932166;29;20447;-37
2024/01/21 05:02:36;;;;;;;15.30;14.60;;;;;;;1.11;84.61;101901.75;4931210;29;20447;-36
2024/01/21 05:05:04;;;;;;;15.67;14.70;;;;;;;1.13;83.25;101901.66;4932796;29;20448;-35
2024/01/21 05:07:32;;;;;;;15.70;15.00;;;;;;;1.16;82.85;101888.31;4931529;28;20621;-37
2024/01/21 05:10:00;;;;;;;15.10;14.50;;;;;;;1.19;81.80;101869.69;4932604;29;20444;-36
2024/01/21 05:12:27;;;;;;;15.90;15.10;;;;;;;1.22;82.73;101885.25;4931702;29;20447;-36
2024/01/21 05:14:56;;;;;;;15.17;14.57;;;;;;;1.23;80.71;101877.25;4931951;29;20448;-36
2024/01/21 05:17:25;;;;;;;15.60;15.00;;;;;;;1.26;81.12;101869.13;4932507;28;20537;-35
2024/01/21 05:19:53;;;;;;;16.10;15.40;;;;;;;1.26;79.49;101863.88;4931954;29;20442;-35
2024/01/21 05:22:20;;;;;;;15.77;15.17;;;;;;;1.27;79.66;101860.31;4931564;29;20444;-36
2024/01/21 05:24:50;;;;;;;16.40;15.50;;;;;;;1.27;79.14;101859.47;4932027;29;20433;-35
2024/01/21 05:27:19;;;;;;;15.90;15.10;;;;;;;1.26;78.59;101848.13;4931779;28;20496;-35
2024/01/21 05:29:47;;;;;;;15.90;15.30;;;;;;;1.27;79.56;101843.69;4935566;29;20913;-37
2024/01/21 05:32:14;;;;;;;14.20;13.60;;;;;;;1.27;76.78;101843.69;4931925;29;20445;-38
2024/01/21 05:34:43;;;;;;;15.90;15.23;;;;;;;1.27;76.91;101839.28;4931097;29;20543;-39
2024/01/21 05:37:11;;;;;;;15.20;14.60;;;;;;;1.30;76.00;101825.09;4931109;28;20506;-36
2024/01/21 05:39:39;;;;;;;14.90;14.20;;;;;;;1.30;77.36;101825.09;4932695;29;20472;-36
2024/01/21 05:42:08;;;;;;;13.90;13.50;;;;;;;1.32;76.46;101813.50;4931520;29;20524;-36
2024/01/21 05:44:36;;;;;;;14.33;13.80;;;;;;;1.33;77.42;101815.22;4931269;29;20550;-38
2024/01/21 05:47:04;;;;;;;14.77;14.17;;;;;;;1.32;75.85;101800.38;4931707;28;20517;-36
2024/01/21 05:49:33;;;;;;;14.00;13.40;;;;;;;1.34;74.47;101793.25;4931111;29;20536;-36
2024/01/21 05:52:02;;;;;;;13.87;13.27;;;;;;;1.35;71.63;101794.91;4931477;29;20433;-36
2024/01/21 05:54:30;;;;;;;13.67;13.07;;;;;;;1.36;71.79;101788.69;4931764;29;20472;-36
2024/01/21 05:56:58;;;;;;;14.03;13.47;;;;;;;1.38;70.34;101778.91;4923825;28;20475;-36
2024/01/21 05:59:26;;;;;;;13.60;13.00;;;;;;;1.37;68.87;101772.00;4931732;29;20936;-36
2024/01/21 06:01:54;;;;;;;13.50;13.00;;;;;;;1.38;68.04;101771.03;4931308;29;20920;-35
2024/01/21 06:04:22;;;;;;;13.00;12.50;;;;;;;1.41;70.73;101768.16;4930313;29;20460;-36
2024/01/21 06:06:49;;;;;;;14.00;13.40;;;;;;;1.43;69.32;101766.28;4930551;28;20467;-35
2024/01/21 06:09:19;;;;;;;12.90;12.40;;;;;;;1.45;66.32;101753.88;4931948;29;20444;-36
2024/01/21 06:11:47;;;;;;;12.30;11.80;;;;;;;1.47;64.02;101751.09;4930390;29;20444;-36
2024/01/21 06:14:14;;;;;;;12.40;11.80;;;;;;;1.50;62.06;101746.47;4930496;29;20492;-36
2024/01/21 06:16:42;;;;;;;13.03;12.33;;;;;;;1.55;63.98;101746.13;4930599;28;20483;-36
2024/01/21 06:19:10;;;;;;;12.17;11.70;;;;;;;1.55;61.90;101743.50;4931220;29;20449;-35
2024/01/21 06:21:42;;;;;;;12.43;11.90;;;;;;;1.57;61.89;101742.44;4930519;29;20447;-36
2024/01/21 06:24:10;;;;;;;11.70;11.30;;;;;;;1.60;61.41;101739.56;4931533;29;20893;-36
2024/01/21 06:26:40;;;;;;;12.20;11.70;;;;;;;1.62;60.17;101735.03;4930122;28;20559;-35
2024/01/21 06:29:08;;;;;;;12.83;12.23;;;;;;;1.64;60.16;101725.22;4931772;29;20441;-36
2024/01/21 06:31:36;;;;;;;11.40;11.00;;;;;;;1.65;60.03;101720.81;4931315;29;20540;-35
2024/01/21 06:34:04;;;;;;;11.70;11.10;;;;;;;1.67;58.98;101718.94;4931079;29;20547;-35
2024/01/21 06:36:32;;;;;;;12.00;11.50;;;;;;;1.67;57.79;101714.47;4931140;28;20484;-35
2024/01/21 06:38:59;;;;;;;12.00;11.40;;;;;;;1.68;58.45;101703.03;4931468;29;20444;-36
2024/01/21 06:41:27;;;;;;;13.10;12.40;;;;;;;1.70;57.22;101699.44;4931109;29;20436;-35
2024/01/21 06:43:56;;;;;;;12.33;11.80;;;;;;;1.72;56.09;101687.00;4931344;29;20468;-36
2024/01/21 06:46:24;;;;;;;12.27;11.43;;;;;;;1.73;55.54;101681.66;4929581;28;20460;-36
2024/01/21 06:48:51;;;;;;;11.47;10.97;;;;;;;1.75;56.78;101676.25;4930051;29;20481;-36
2024/01/21 06:51:31;;;;;;;10.60;10.10;;;;;;;1.75;57.25;101678.88;4931113;29;20531;-36
2024/01/21 06:54:00;;;;;;;11.43;10.83;;;;;;;1.75;55.42;101657.84;4931202;29;20512;-36
2024/01/21 06:56:28;;;;;;;11.20;10.70;;;;;;;1.76;55.93;101665.66;4930734;28;20476;-36
2024/01/21 06:58:57;;;;;;;10.87;10.37;;;;;;;1.78;57.07;101665.50;4931037;29;20445;-36
2024/01/21 07:01:24;;;;;;;11.57;10.97;;;;;;;1.79;56.15;101669.81;4931130;29;20450;-35
2024/01/21 07:03:52;;;;;;;11.33;10.70;;;;;;;1.81;55.70;101667.91;4929951;29;20468;-35
2024/01/21 07:06:20;;;;;;;10.80;10.20;;;;;;;1.80;55.91;101645.19;4930694;28;20467;-35
2024/01/21 07:08:48;;;;;;;10.87;10.20;;;;;;;1.80;56.06;101648.66;4931161;29;20436;-36
2024/01/21 07:11:16;;;;;;;10.80;10.30;;;;;;;1.80;55.66;101653.06;4931736;29;20840;-33
2024/01/21 07:13:44;;;;;;;10.40;10.00;;;;;;;1.80;55.35;101638.13;4930206;29;20496;-36
2024/01/21 07:16:13;;;;;;;9.50;9.03;;;;;;;1.80;55.36;101642.56;4929569;28;20468;-35
2024/01/21 07:18:41;;;;;;;9.40;8.90;;;;;;;1.81;54.65;101628.47;4932085;29;20492;-36
2024/01/21 07:21:09;;;;;;;9.80;9.30;;;;;;;1.81;54.18;101615.31;4931426;29;20479;-36
2024/01/21 07:23:38;;;;;;;9.60;9.10;;;;;;;1.80;55.05;101619.72;4931595;29;20460;-34
2024/01/21 07:26:06;;;;;;;9.80;9.30;;;;;;;1.79;55.56;101610.19;4935217;28;20461;-38
2024/01/21 07:28:33;;;;;;;9.57;8.97;;;;;;;1.78;55.16;101600.63;4935801;29;20472;-38
2024/01/21 07:31:01;;;;;;;10.50;10.00;;;;;;;1.76;55.45;101591.19;4934243;29;20447;-36
2024/01/21 07:33:31;;;;;;;10.13;9.63;;;;;;;1.74;56.64;101587.81;4932569;29;20456;-36
2024/01/21 07:36:03;;;;;;;9.50;9.10;;;;;;;1.71;54.97;101582.78;4933385;28;20440;-34
2024/01/21 07:38:30;;;;;;;9.73;9.03;;;;;;;1.72;55.81;101592.34;4934761;29;20480;-36
2024/01/21 07:40:58;;;;;;;9.23;8.57;;;;;;;1.70;56.16;101591.66;4933231;29;20441;-36
2024/01/21 07:43:26;;;;;;;8.73;8.33;;;;;;;1.70;56.48;101589.84;4925505;29;20507;-36
2024/01/21 07:45:54;;;;;;;9.40;8.90;;;;;;;1.72;56.00;101590.56;4933104;28;20528;-35
2024/01/21 07:48:22;;;;;;;9.60;8.93;;;;;;;1.73;55.22;101570.38;4933806;29;20445;-36
2024/01/21 07:50:51;;;;;;;9.27;8.67;;;;;;;1.76;55.71;101585.91;4933378;29;20531;-37
2024/01/21 07:53:19;;;;;;;9.57;8.97;;;;;;;1.76;55.56;101572.75;4927374;29;21315;-36
2024/01/21 07:55:48;;;;;;;7.93;7.63;;;;;;;1.78;56.50;101576.94;4923639;28;20453;-35
2024/01/21 07:58:15;;;;;;;8.57;8.07;;;;;;;1.78;55.31;101566.44;4933467;29;20476;-35
2024/01/21 08:00:43;;;;;;;9.63;9.03;;;;;;;1.78;55.07;101560.31;4933325;29;21196;-36
2024/01/21 08:03:12;;;;;;;8.70;8.20;;;;;;;1.83;56.03;101566.06;4932500;29;20468;-34
2024/01/21 08:05:40;;;;;;;8.90;8.30;;;;;;;1.84;55.88;101557.22;4932799;29;20441;-37
2024/01/21 08:08:09;;;;;;;8.10;7.70;;;;;;;1.86;55.87;101542.13;4932419;28;21204;-36
2024/01/21 08:10:37;;;;;;;8.40;8.00;;;;;;;1.86;55.74;101539.50;4932735;29;20524;-37
2024/01/21 08:13:05;;;;;;;8.20;7.80;;;;;;;1.88;53.85;101527.91;4925275;29;20531;-33
2024/01/21 08:15:33;;;;;;;8.30;7.80;;;;;;;1.94;55.77;101524.78;4933865;29;20444;-38
2024/01/21 08:18:01;;;;;;;8.00;7.30;;;;;;;1.97;56.17;101518.47;4932184;28;20486;-36
2024/01/21 08:20:28;;;;;;;8.10;7.60;;;;;;;2.00;53.96;101491.94;4933163;29;20448;-36
2024/01/21 08:22:57;;;;;;;7.03;6.73;;;;;;;2.04;54.96;101482.81;4933061;29;20539;-34
2024/01/21 08:25:26;;;;;;;7.63;7.20;;;;;;;2.06;53.70;101486.19;4932449;29;21087;-41
2024/01/21 08:27:54;;;;;;;7.00;6.67;;;;;;;2.07;54.23;101516.75;4934199;28;20816;-38
2024/01/21 08:30:22;;;;;;;7.70;7.30;;;;;;;2.11;53.97;101516.41;4931086;29;20444;-38
2024/01/21 08:32:49;;;;;;;7.00;6.60;;;;;;;2.15;54.42;101525.72;4932607;29;20520;-35
2024/01/21 08:35:20;;;;;;;9.73;7.87;;;;;;;2.19;54.79;101536.81;4931865;29;21198;-37
2024/01/21 08:37:48;;;;;;;7.60;7.20;;;;;;;2.21;53.78;101532.31;4925951;29;20544;-36
2024/01/21 08:40:16;;;;;;;6.77;6.37;;;;;;;2.23;53.55;101518.06;4935704;29;20490;-36
2024/01/21 08:42:45;;;;;;;6.20;5.90;;;;;;;2.26;54.12;101514.34;4931099;29;21054;-35
2024/01/21 08:45:13;;;;;;;6.40;6.00;;;;;;;2.30;53.42;101504.41;4932881;29;20866;-36
2024/01/21 08:47:40;;;;;;;8.30;7.00;;;;;;;2.37;52.93;101490.59;4931402;28;20468;-35
2024/01/21 08:50:09;;;;;;;7.13;6.73;;;;;;;2.40;52.37;101484.25;4931676;29;20476;-35
2024/01/21 08:52:37;;;;;;;8.30;7.57;;;;;;;2.45;52.40;101496.06;4931807;29;20444;-38
2024/01/21 08:55:06;;;;;;;6.37;6.07;;;;;;;2.48;51.74;101493.19;4932057;29;20950;-35
2024/01/21 08:57:34;;;;;;;6.40;6.00;;;;;;;2.54;52.20;101474.25;4923921;29;20461;-37
2024/01/21 09:00:05;;;;;;;6.23;5.73;;;;;;;2.54;51.77;101455.81;4932382;29;20448;-36
2024/01/21 09:02:33;;;;;;;7.33;7.03;;;;;;;2.56;50.80;101437.28;4931624;29;20445;-35
2024/01/21 09:05:01;;;;;;;8.13;7.73;;;;;;;2.58;51.19;101430.91;4931150;29;20828;-35
2024/01/21 09:07:29;;;;;;;7.87;7.47;;;;;;;2.60;51.93;101415.81;4932193;28;20464;-35
2024/01/21 09:09:56;;;;;;;7.43;7.13;;;;;;;2.63;51.52;101420.81;4931583;29;20477;-36
2024/01/21 09:12:24;;;;;;;5.77;5.47;;;;;;;2.64;51.25;101405.84;4931709;29;20441;-34
2024/01/21 09:14:53;;;;;;;6.77;6.27;;;;;;;2.67;51.50;101405.59;4931956;29;20441;-38
2024/01/21 09:17:22;;;;;;;6.10;5.80;;;;;;;2.68;51.45;101423.06;4931853;28;20544;-36
2024/01/21 09:19:49;;;;;;;7.23;6.70;;;;;;;2.70;51.09;101418.50;4932300;29;20848;-36
2024/01/21 09:22:17;;;;;;;6.20;5.87;;;;;;;2.73;51.46;101384.84;4931997;29;20449;-36
2024/01/21 09:24:45;;;;;;;5.57;5.27;;;;;;;2.74;51.29;101391.78;4932816;29;20441;-35
2024/01/21 09:27:13;;;;;;;5.10;4.90;;;;;;;2.74;50.92;101472.59;4923765;29;20461;-38
2024/01/21 09:29:41;;;;;;;5.20;5.00;;;;;;;2.74;51.41;101452.38;4916175;29;20497;-36
2024/01/21 09:32:10;;;;;;;5.50;5.20;;;;;;;2.76;50.84;101460.97;4915659;29;20880;-35
2024/01/21 09:34:41;;;;;;;6.27;5.77;;;;;;;2.81;51.72;101488.72;4932224;29;20507;-35
2024/01/21 09:37:09;;;;;;;5.67;5.47;;;;;;;2.84;52.39;101497.19;4931104;28;21021;-36
2024/01/21 09:39:37;;;;;;;5.90;5.50;;;;;;;2.80;51.78;101498.44;4932483;29;20479;-35
2024/01/21 09:42:07;;;;;;;5.90;5.60;;;;;;;2.82;51.62;101493.00;4931939;29;20801;-36
2024/01/21 09:44:34;;;;;;;5.70;5.40;;;;;;;2.84;52.17;101497.19;4931944;29;20573;-35
2024/01/21 09:47:03;;;;;;;6.40;5.87;;;;;;;2.85;52.33;101484.84;4931878;28;20511;-36
2024/01/21 09:49:32;;;;;;;6.03;5.63;;;;;;;2.87;52.49;101493.50;4929959;29;20849;-37
2024/01/21 09:52:03;;;;;;;6.10;5.80;;;;;;;2.85;52.86;101487.50;4930921;29;20445;-35
2024/01/21 09:54:32;;;;;;;6.50;6.00;;;;;;;2.87;52.70;101483.75;4931865;29;20590;-35
2024/01/21 09:57:00;;;;;;;5.80;5.50;;;;;;;2.86;52.89;101479.47;4932010;28;21002;-38
2024/01/21 09:59:28;;;;;;;5.93;5.63;;;;;;;2.86;52.94;101474.22;4931688;29;21011;-38
2024/01/21 10:01:56;;;;;;;5.77;5.37;;;;;;;2.86;53.02;101463.66;4931839;29;20451;-38
2024/01/21 10:04:24;;;;;;;6.23;5.67;;;;;;;2.92;54.04;101451.78;4932152;29;21196;-35
2024/01/21 10:06:52;;;;;;;5.80;5.50;;;;;;;2.94;53.41;101431.41;4930981;28;20928;-35
2024/01/21 10:09:23;;;;;;;5.70;5.20;;;;;;;2.95;53.24;101440.97;4931331;29;20453;-36
2024/01/21 10:11:55;;;;;;;6.40;6.10;;;;;;;3.01;54.42;101438.66;4928620;29;20448;-37
2024/01/21 10:14:22;;;;;;;6.33;5.93;;;;;;;3.03;54.83;101434.09;4926307;29;21280;-37
2024/01/21 10:16:50;;;;;;;5.57;5.23;;;;;;;3.03;54.41;101422.72;4926609;28;20468;-34
2024/01/21 10:19:26;;;;;;;5.80;5.50;;;;;;;3.04;52.99;101416.47;4922859;29;20480;-35
2024/01/21 10:22:07;;;;;;;6.50;6.10;;;;;;;3.09;53.07;101407.22;4929519;29;20531;-37
2024/01/21 10:24:38;;;;;;;6.60;6.20;;;;;;;3.12;53.26;101387.66;4930662;29;20487;-39
2024/01/21 10:27:07;;;;;;;5.83;5.43;;;;;;;3.20;53.66;101375.47;4937747;28;20805;-42
2024/01/21 10:29:36;;;;;;;6.20;5.80;;;;;;;3.24;53.51;101352.34;4933272;29;20520;-36
2024/01/21 10:32:05;;;;;;;6.40;6.07;;;;;;;3.29;52.89;101345.69;4951871;23;21088;-44
2024/01/21 10:34:33;;;;;;;6.00;5.50;;;;;;;3.42;53.48;101361.25;4939305;29;20547;-44
2024/01/21 10:37:04;;;;;;;7.07;6.47;;;;;;;3.55;54.21;101368.94;4941108;28;20464;-42
2024/01/21 10:39:33;;;;;;;6.20;5.70;;;;;;;3.60;54.25;101377.25;4934154;29;20547;-41
2024/01/21 10:42:02;;;;;;;6.43;6.03;;;;;;;3.64;54.48;101378.66;4930382;29;20508;-43
2024/01/21 10:44:31;;;;;;;6.17;5.83;;;;;;;3.71;54.54;101374.47;4917127;29;20518;-44
2024/01/21 10:47:01;;;;;;;6.43;6.13;;;;;;;3.83;54.39;101376.88;4930099;28;20555;-41
2024/01/21 10:49:31;;;;;;;7.03;6.63;;;;;;;3.97;54.33;101362.44;4919962;29;20429;-44
2024/01/21 10:52:00;;;;;;;6.20;5.90;;;;;;;4.06;53.26;101358.13;4924831;29;20467;-44
2024/01/21 10:54:28;;;;;;;7.57;7.10;;;;;;;4.06;53.33;101366.06;4926380;29;20430;-43
2024/01/21 10:57:00;;;;;;;6.40;6.10;;;;;;;4.09;53.82;101377.13;4928800;28;20491;-43
2024/01/21 10:59:30;;;;;;;6.50;6.10;;;;;;;4.06;54.18;101368.69;4928994;29;20485;-47
2024/01/21 11:01:58;;;;;;;6.30;5.83;;;;;;;4.10;55.40;101383.25;4924874;29;21029;-44
2024/01/21 11:04:27;;;;;;;5.43;5.03;;;;;;;4.00;55.81;101385.09;4936370;29;20437;-45
2024/01/21 11:06:55;;;;;;;6.80;6.10;;;;;;;3.88;55.94;101385.19;4936194;28;20496;-42
2024/01/21 11:09:26;;;;;;;7.37;6.97;;;;;;;3.85;57.34;101406.56;4928632;29;20452;-44
2024/01/21 11:11:54;;;;;;;7.00;6.50;;;;;;;3.78;58.84;101400.19;4935578;29;21010;-44
2024/01/21 11:14:32;;;;;;;6.53;6.13;;;;;;;3.63;65.51;101398.91;4929008;29;20438;-42
2024/01/21 11:17:02;;;;;;;7.23;6.77;;;;;;;3.40;83.64;101400.13;4926092;28;20535;-44
2024/01/21 11:19:39;;;;;;;8.10;7.50;;;;;;;3.24;93.70;101397.97;4928512;29;20498;-45
2024/01/21 11:22:10;;;;;;;7.57;7.13;;;;;;;3.16;91.56;101402.25;4935442;29;20455;-42
2024/01/21 11:24:38;;;;;;;6.80;6.50;;;;;;;3.03;89.89;101397.19;4937485;29;20530;-43